createdAt,value
2022-10-02T00:02:02.306Z,96617.44
2022-10-02T00:04:35.287Z,96611.94
2022-10-02T00:07:08.556Z,96619.75
2022-10-02T00:09:43.471Z,96614.25
2022-10-02T00:12:15.411Z,96605.28
2022-10-02T00:14:47.853Z,96615.59
2022-10-02T00:17:21.555Z,96613.56
2022-10-02T00:19:54.328Z,96612.38
2022-10-02T00:22:31.440Z,96611.19
2022-10-02T00:25:07.104Z,96612.84
2022-10-02T00:27:45.670Z,96611.66
2022-10-02T00:30:18.142Z,96616.97
2022-10-02T00:33:02.361Z,96617.78
2022-10-02T00:35:41.179Z,96627.41
2022-10-02T00:38:22.717Z,96629.91
2022-10-02T00:41:15.152Z,96629.72
2022-10-02T00:43:57.812Z,96630.56
2022-10-02T00:46:38.852Z,96643.03
2022-10-02T00:49:30.097Z,96622.56
2022-10-02T00:52:08.584Z,96620.56
2022-10-02T00:54:57.615Z,96626.34
2022-10-02T00:57:39.938Z,96622.66
2022-10-02T01:00:12.661Z,96629.81
2022-10-02T01:03:12.747Z,96638.78
2022-10-02T01:05:41.168Z,96651.09
2022-10-02T01:08:09.618Z,96648.59
2022-10-02T01:10:39.138Z,96647.63
2022-10-02T01:13:08.361Z,96642.28
2022-10-02T01:15:39.257Z,96644.09
2022-10-02T01:18:12.006Z,96659.06
2022-10-02T01:20:43.422Z,96650.63
2022-10-02T01:23:24.499Z,96653.28
2022-10-02T01:25:54.380Z,96644.97
2022-10-02T01:28:23.400Z,96651.09
2022-10-02T01:30:55.946Z,96638.63
2022-10-02T01:33:25.782Z,96654.41
2022-10-02T01:35:54.229Z,96647.25
2022-10-02T01:38:24.676Z,96649.72
2022-10-02T01:40:54.603Z,96669.78
2022-10-02T01:43:28.157Z,96674.28
2022-10-02T01:46:08.692Z,96675.13
2022-10-02T01:48:46.100Z,96678.78
2022-10-02T01:51:25.730Z,96683.09
2022-10-02T01:54:05.964Z,96685.41
2022-10-02T01:56:44.911Z,96678.06
2022-10-02T01:59:24.913Z,96670.41
2022-10-02T02:02:03.453Z,96665.88
2022-10-02T02:04:42.698Z,96673.69
2022-10-02T02:07:17.664Z,96687.81
2022-10-02T02:09:57.412Z,96683.31
2022-10-02T02:12:38.199Z,96677.00
2022-10-02T02:15:12.657Z,96684.16
2022-10-02T02:17:49.450Z,96684.34
2022-10-02T02:20:22.754Z,96689.66
2022-10-02T02:22:54.317Z,96689.66
2022-10-02T02:25:27.205Z,96666.72
2022-10-02T02:28:00.979Z,96680.19
2022-10-02T02:30:32.693Z,96689.00
2022-10-02T02:33:05.786Z,96690.66
2022-10-02T02:35:38.900Z,96703.94
2022-10-02T02:38:10.762Z,96701.09
2022-10-02T02:40:43.067Z,96696.44
2022-10-02T02:43:17.990Z,96695.44
2022-10-02T02:45:51.180Z,96707.72
2022-10-02T02:48:23.839Z,96697.06
2022-10-02T02:50:56.210Z,96692.41
2022-10-02T02:53:29.146Z,96685.91
2022-10-02T02:56:00.809Z,96697.19
2022-10-02T02:58:37.225Z,96688.19
2022-10-02T03:01:05.675Z,96696.00
2022-10-02T03:03:34.035Z,96687.84
2022-10-02T03:06:08.389Z,96691.97
2022-10-02T03:08:38.262Z,96689.78
2022-10-02T03:11:18.643Z,96694.72
2022-10-02T03:14:02.289Z,96690.06
2022-10-02T03:16:44.629Z,96686.75
2022-10-02T03:19:29.207Z,96692.91
2022-10-02T03:22:05.831Z,96682.25
2022-10-02T03:24:41.592Z,96686.75
2022-10-02T03:27:14.320Z,96696.56
2022-10-02T03:29:50.417Z,96695.75
2022-10-02T03:32:21.239Z,96690.59
2022-10-02T03:34:49.638Z,96695.91
2022-10-02T03:37:18.734Z,96687.59
2022-10-02T03:39:47.361Z,96686.38
2022-10-02T03:42:26.079Z,96686.38
2022-10-02T03:44:55.774Z,96689.22
2022-10-02T03:47:24.175Z,96684.06
2022-10-02T03:49:52.534Z,96683.25
2022-10-02T03:52:24.315Z,96689.59
2022-10-02T03:54:56.812Z,96693.25
2022-10-02T03:57:26.691Z,96686.47
2022-10-02T04:00:03.260Z,96691.97
2022-10-02T04:02:38.931Z,96684.63
2022-10-02T04:05:18.895Z,96680.34
2022-10-02T04:07:52.945Z,96685.38
2022-10-02T04:10:31.335Z,96679.94
2022-10-02T04:13:08.858Z,96678.84
2022-10-02T04:15:53.345Z,96676.22
2022-10-02T04:18:25.986Z,96672.13
2022-10-02T04:20:59.588Z,96674.47
2022-10-02T04:23:34.412Z,96681.16
2022-10-02T04:26:08.688Z,96680.03
2022-10-02T04:28:41.282Z,96683.06
2022-10-02T04:31:13.268Z,96675.28
2022-10-02T04:33:42.043Z,96678.28
2022-10-02T04:36:22.715Z,96678.81
2022-10-02T04:39:07.052Z,96677.53
2022-10-02T04:41:53.264Z,96679.34
2022-10-02T04:44:33.984Z,96672.53
2022-10-02T04:47:25.589Z,96671.72
2022-10-02T04:50:10.586Z,96677.03
2022-10-02T04:53:00.547Z,96663.91
2022-10-02T04:56:04.570Z,96668.41
2022-10-02T04:58:53.567Z,96669.38
2022-10-02T05:01:31.353Z,96676.53
2022-10-02T05:04:31.964Z,96676.06
2022-10-02T05:07:13.785Z,96676.44
2022-10-02T05:09:53.683Z,96670.47
2022-10-02T05:12:44.715Z,96673.47
2022-10-02T05:15:25.526Z,96672.81
2022-10-02T05:18:18.117Z,96658.25
2022-10-02T05:21:13.584Z,96675.00
2022-10-02T05:23:55.735Z,96670.50
2022-10-02T05:26:42.999Z,96653.56
2022-10-02T05:29:32.478Z,96653.88
2022-10-02T05:32:17.146Z,96665.59
2022-10-02T05:35:02.392Z,96661.41
2022-10-02T05:37:50.832Z,96670.53
2022-10-02T05:40:25.128Z,96664.88
2022-10-02T05:43:02.912Z,96663.69
2022-10-02T05:45:36.495Z,96671.97
2022-10-02T05:48:13.475Z,96678.56
2022-10-02T05:50:42.679Z,96677.38
2022-10-02T05:53:26.138Z,96665.75
2022-10-02T05:56:01.131Z,96672.72
2022-10-02T05:58:34.934Z,96669.22
2022-10-02T06:01:11.156Z,96671.53
2022-10-02T06:03:43.854Z,96671.53
2022-10-02T06:06:18.731Z,96670.53
2022-10-02T06:08:54.397Z,96680.34
2022-10-02T06:11:27.988Z,96693.47
2022-10-02T06:14:00.625Z,96686.66
2022-10-02T06:16:34.382Z,96685.47
2022-10-02T06:19:12.642Z,96680.34
2022-10-02T06:21:49.270Z,96678.50
2022-10-02T06:24:25.431Z,96686.47
2022-10-02T06:27:00.684Z,96690.16
2022-10-02T06:29:34.559Z,96701.78
2022-10-02T06:32:15.404Z,96698.47
2022-10-02T06:34:47.999Z,96704.59
2022-10-02T06:37:33.539Z,96707.25
2022-10-02T06:40:20.086Z,96713.44
2022-10-02T06:42:58.549Z,96726.72
2022-10-02T06:45:39.094Z,96722.41
2022-10-02T06:48:26.674Z,96745.13
2022-10-02T06:51:01.976Z,96729.38
2022-10-02T06:53:50.611Z,96739.66
2022-10-02T06:56:43.479Z,96748.44
2022-10-02T06:59:26.382Z,96743.31
2022-10-02T07:02:00.981Z,96747.78
2022-10-02T07:04:47.993Z,96750.44
2022-10-02T07:07:35.224Z,96760.63
2022-10-02T07:10:15.222Z,96754.84
2022-10-02T07:13:02.929Z,96756.84
2022-10-02T07:15:53.371Z,96774.16
2022-10-02T07:18:32.692Z,96770.38
2022-10-02T07:21:11.348Z,96764.56
2022-10-02T07:23:48.612Z,96767.53
2022-10-02T07:26:47.790Z,96772.38
2022-10-02T07:29:30.383Z,96777.03
2022-10-02T07:32:19.041Z,96772.75
2022-10-02T07:34:59.139Z,96771.72
2022-10-02T07:37:36.665Z,96776.38
2022-10-02T07:40:25.675Z,96772.75
2022-10-02T07:43:11.432Z,96773.72
2022-10-02T07:45:42.699Z,96771.06
2022-10-02T07:48:33.945Z,96773.72
2022-10-02T07:51:31.454Z,96774.75
2022-10-02T07:54:09.432Z,96774.09
2022-10-02T07:56:38.786Z,96785.38
2022-10-02T07:59:13.019Z,96780.06
2022-10-02T08:01:44.432Z,96783.53
2022-10-02T08:04:18.802Z,96786.84
2022-10-02T08:06:48.864Z,96784.19
2022-10-02T08:09:23.986Z,96771.72
2022-10-02T08:11:57.913Z,96779.84
2022-10-02T08:14:32.457Z,96771.06
2022-10-02T08:17:10.857Z,96771.88
2022-10-02T08:19:43.359Z,96773.72
2022-10-02T08:22:22.874Z,96774.75
2022-10-02T08:24:56.434Z,96781.03
2022-10-02T08:27:30.347Z,96772.44
2022-10-02T08:30:03.862Z,96760.16
2022-10-02T08:32:37.383Z,96765.28
2022-10-02T08:35:12.017Z,96763.47
2022-10-02T08:37:48.011Z,96748.34
2022-10-02T08:40:39.079Z,96742.22
2022-10-02T08:43:48.595Z,96749.53
2022-10-02T08:46:50.406Z,96752.34
2022-10-02T08:50:02.510Z,96744.56
2022-10-02T08:52:56.552Z,96740.44
2022-10-02T08:55:55.587Z,96738.09
2022-10-02T08:58:59.260Z,96731.97
2022-10-02T09:02:00.095Z,96719.69
2022-10-02T09:05:05.387Z,96717.03
2022-10-02T09:08:12.203Z,96701.09
2022-10-02T09:11:17.514Z,96694.41
2022-10-02T09:14:24.717Z,96689.75
2022-10-02T09:17:15.438Z,96680.47
2022-10-02T09:19:58.034Z,96670.88
2022-10-02T09:22:58.933Z,96677.19
2022-10-02T09:25:37.083Z,96660.59
2022-10-02T09:28:52.923Z,96666.91
2022-10-02T09:31:44.671Z,96653.81
2022-10-02T09:34:48.502Z,96647.84
2022-10-02T09:37:54.533Z,96652.69
2022-10-02T09:40:53.185Z,96638.59
2022-10-02T09:44:03.621Z,96628.59
2022-10-02T09:46:59.037Z,96634.75
2022-10-02T09:50:00.682Z,96631.09
2022-10-02T09:52:51.237Z,96625.41
2022-10-02T09:55:57.758Z,96626.69
2022-10-02T09:58:56.421Z,96618.88
2022-10-02T10:01:43.369Z,96597.06
2022-10-02T10:05:01.311Z,96594.72
2022-10-02T10:08:02.725Z,96579.03
2022-10-02T10:11:03.523Z,96580.38
2022-10-02T10:14:07.667Z,96572.03
2022-10-02T10:17:20.470Z,96570.19
2022-10-02T10:20:33.595Z,96560.69
2022-10-02T10:23:14.517Z,96575.91
2022-10-02T10:25:59.203Z,96572.34
2022-10-02T10:29:09.584Z,96560.16
2022-10-02T10:32:24.380Z,96559.88
2022-10-02T10:35:18.821Z,96548.25
2022-10-02T10:38:14.261Z,96550.63
2022-10-02T10:41:15.336Z,96548.84
2022-10-02T10:44:19.196Z,96541.78
2022-10-02T10:47:18.254Z,96548.22
2022-10-02T10:50:21.791Z,96547.47
2022-10-02T10:53:37.251Z,96555.72
2022-10-02T10:56:39.687Z,96547.63
2022-10-02T10:59:29.679Z,96546.50
2022-10-02T11:02:20.796Z,96546.19
2022-10-02T11:05:09.789Z,96541.03
2022-10-02T11:08:02.558Z,96529.31
2022-10-02T11:10:47.134Z,96531.56
2022-10-02T11:13:33.849Z,96535.47
2022-10-02T11:16:34.635Z,96528.91
2022-10-02T11:19:43.616Z,96529.69
2022-10-02T11:22:26.555Z,96529.81
2022-10-02T11:25:21.252Z,96517.34
2022-10-02T11:28:12.377Z,96521.94
2022-10-02T11:30:52.129Z,96525.47
2022-10-02T11:33:49.662Z,96509.28
2022-10-02T11:36:42.788Z,96499.38
2022-10-02T11:39:17.427Z,96506.59
2022-10-02T11:42:05.933Z,96496.88
2022-10-02T11:44:58.520Z,96504.91
2022-10-02T11:47:46.649Z,96480.22
2022-10-02T11:50:39.723Z,96477.34
2022-10-02T11:53:32.123Z,96468.09
2022-10-02T11:56:15.404Z,96466.84
2022-10-02T11:58:56.450Z,96455.13
2022-10-02T12:01:35.972Z,96447.75
2022-10-02T12:04:30.411Z,96457.19
2022-10-02T12:07:21.274Z,96438.28
2022-10-02T12:10:04.555Z,96432.53
2022-10-02T12:12:51.627Z,96429.84
2022-10-02T12:15:31.520Z,96432.53
2022-10-02T12:18:25.279Z,96425.75
2022-10-02T12:21:27.737Z,96434.78
2022-10-02T12:24:20.821Z,96430.47
2022-10-02T12:26:59.620Z,96426.16
2022-10-02T12:29:47.233Z,96428.00
2022-10-02T12:32:28.043Z,96414.44
2022-10-02T12:35:17.770Z,96415.25
2022-10-02T12:37:57.593Z,96407.06
2022-10-02T12:40:34.537Z,96396.56
2022-10-02T12:43:40.498Z,96394.09
2022-10-02T12:46:26.450Z,96395.09
2022-10-02T12:49:15.062Z,96393.47
2022-10-02T12:52:00.822Z,96390.38
2022-10-02T12:55:04.602Z,96388.97
2022-10-02T12:58:04.795Z,96383.00
2022-10-02T13:00:51.265Z,96370.47
2022-10-02T13:04:00.961Z,96370.06
2022-10-02T13:07:00.498Z,96373.34
2022-10-02T13:09:41.347Z,96365.97
2022-10-02T13:12:20.466Z,96368.63
2022-10-02T13:15:11.801Z,96389.38
2022-10-02T13:17:47.852Z,96387.91
2022-10-02T13:20:28.218Z,96389.78
2022-10-02T13:23:08.985Z,96391.59
2022-10-02T13:26:04.163Z,96400.84
2022-10-02T13:28:57.166Z,96402.47
2022-10-02T13:31:39.941Z,96411.13
2022-10-02T13:34:26.101Z,96397.97
2022-10-02T13:37:13.203Z,96394.72
2022-10-02T13:40:03.616Z,96403.53
2022-10-02T13:42:42.940Z,96381.56
2022-10-02T13:45:19.218Z,96384.44
2022-10-02T13:47:59.654Z,96369.84
2022-10-02T13:50:42.547Z,96385.25
2022-10-02T13:53:36.702Z,96385.44
2022-10-02T13:56:18.263Z,96378.88
2022-10-02T13:59:11.306Z,96383.63
2022-10-02T14:01:52.243Z,96388.53
2022-10-02T14:04:53.021Z,96404.16
2022-10-02T14:07:38.574Z,96393.47
2022-10-02T14:10:15.342Z,96402.53
2022-10-02T14:12:57.913Z,96401.72
2022-10-02T14:15:36.982Z,96393.50
2022-10-02T14:18:30.402Z,96390.34
2022-10-02T14:21:08.160Z,96406.13
2022-10-02T14:23:52.793Z,96405.97
2022-10-02T14:26:33.644Z,96411.75
2022-10-02T14:29:20.206Z,96403.75
2022-10-02T14:32:11.065Z,96420.22
2022-10-02T14:35:00.939Z,96431.31
2022-10-02T14:37:50.227Z,96436.88
2022-10-02T14:40:20.058Z,96435.63
2022-10-02T14:43:21.857Z,96422.03
2022-10-02T14:46:08.063Z,96433.16
2022-10-02T14:49:06.655Z,96421.63
2022-10-02T14:52:05.367Z,96408.25
2022-10-02T14:54:50.077Z,96449.28
2022-10-02T14:57:34.767Z,96450.47
2022-10-02T15:00:15.746Z,96429.44
2022-10-02T15:03:11.080Z,96448.47
2022-10-02T15:05:49.189Z,96438.56
2022-10-02T15:08:23.248Z,96442.00
2022-10-02T15:10:52.758Z,96444.03
2022-10-02T15:13:34.792Z,96453.63
2022-10-02T15:16:32.479Z,96451.94
2022-10-02T15:19:10.812Z,96445.09
2022-10-02T15:21:46.931Z,96457.59
2022-10-02T15:24:30.041Z,96468.78
2022-10-02T15:27:08.676Z,96442.91
2022-10-02T15:29:47.120Z,96452.31
2022-10-02T15:32:54.680Z,96456.75
2022-10-02T15:35:32.220Z,96463.84
2022-10-02T15:38:26.729Z,96459.13
2022-10-02T15:41:19.251Z,96510.47
2022-10-02T15:43:56.326Z,96499.75
2022-10-02T15:46:33.208Z,96494.56
2022-10-02T15:49:07.946Z,96477.16
2022-10-02T15:52:02.484Z,96515.00
2022-10-02T15:54:46.792Z,96521.69
2022-10-02T15:57:43.819Z,96546.03
2022-10-02T16:00:18.123Z,96516.31
2022-10-02T16:02:58.344Z,96609.19
2022-10-02T16:05:44.377Z,96565.63
2022-10-02T16:08:48.700Z,96567.84
2022-10-02T16:11:50.056Z,96584.66
2022-10-02T16:14:26.112Z,96574.81
2022-10-02T16:17:29.936Z,96563.16
2022-10-02T16:20:16.453Z,96546.53
2022-10-02T16:23:03.652Z,96590.31
2022-10-02T16:25:49.272Z,96594.84
2022-10-02T16:28:32.786Z,96600.97
2022-10-02T16:31:27.882Z,96593.81
2022-10-02T16:34:02.470Z,96593.81
2022-10-02T16:36:42.751Z,96597.31
2022-10-02T16:39:37.077Z,96586.84
2022-10-02T16:42:21.072Z,96586.66
2022-10-02T16:45:13.851Z,96608.13
2022-10-02T16:47:50.285Z,96602.19
2022-10-02T16:50:25.012Z,96594.38
2022-10-02T16:52:59.387Z,96594.53
2022-10-02T16:55:33.687Z,96606.41
2022-10-02T16:58:21.389Z,96615.56
2022-10-02T17:00:59.264Z,96619.22
2022-10-02T17:03:35.769Z,96629.88
2022-10-02T17:06:10.964Z,96639.22
2022-10-02T17:08:45.269Z,96620.50
2022-10-02T17:11:21.596Z,96619.03
2022-10-02T17:14:03.494Z,96613.38
2022-10-02T17:16:41.457Z,96621.81
2022-10-02T17:19:25.638Z,96614.66
2022-10-02T17:22:00.383Z,96583.72
2022-10-02T17:24:42.678Z,96579.25
2022-10-02T17:27:17.162Z,96595.22
2022-10-02T17:29:58.790Z,96607.19
2022-10-02T17:32:48.337Z,96625.56
2022-10-02T17:35:18.695Z,96624.00
2022-10-02T17:38:20.663Z,96611.03
2022-10-02T17:40:55.928Z,96609.03
2022-10-02T17:43:31.590Z,96623.81
2022-10-02T17:46:20.473Z,96629.94
2022-10-02T17:48:58.953Z,96630.50
2022-10-02T17:51:52.504Z,96629.22
2022-10-02T17:55:02.697Z,96627.25
2022-10-02T17:57:43.063Z,96649.56
2022-10-02T18:00:18.657Z,96647.25
2022-10-02T18:03:03.431Z,96661.38
2022-10-02T18:05:49.922Z,96666.69
2022-10-02T18:08:40.402Z,96692.44
2022-10-02T18:11:13.903Z,96700.59
2022-10-02T18:14:04.537Z,96705.63
2022-10-02T18:16:45.668Z,96703.69
2022-10-02T18:19:27.815Z,96683.59
2022-10-02T18:22:11.925Z,96672.31
2022-10-02T18:24:53.602Z,96671.31
2022-10-02T18:27:38.500Z,96678.91
2022-10-02T18:30:15.375Z,96673.59
2022-10-02T18:33:26.051Z,96678.09
2022-10-02T18:36:10.814Z,96676.56
2022-10-02T18:38:54.608Z,96688.13
2022-10-02T18:41:43.926Z,96693.47
2022-10-02T18:44:33.569Z,96704.25
2022-10-02T18:47:11.674Z,96708.56
2022-10-02T18:49:51.810Z,96706.44
2022-10-02T18:52:59.969Z,96712.31
2022-10-02T18:56:03.623Z,96718.78
2022-10-02T18:58:44.520Z,96742.06
2022-10-02T19:01:36.322Z,96739.78
2022-10-02T19:04:27.444Z,96710.16
2022-10-02T19:07:03.690Z,96694.34
2022-10-02T19:09:32.636Z,96709.59
2022-10-02T19:12:06.473Z,96704.09
2022-10-02T19:14:41.246Z,96710.22
2022-10-02T19:17:15.263Z,96710.06
2022-10-02T19:19:44.715Z,96706.94
2022-10-02T19:22:19.808Z,96696.47
2022-10-02T19:24:52.117Z,96690.97
2022-10-02T19:27:26.184Z,96703.06
2022-10-02T19:29:58.763Z,96727.38
2022-10-02T19:32:31.193Z,96750.50
2022-10-02T19:35:03.772Z,96752.75
2022-10-02T19:37:33.274Z,96745.47
2022-10-02T19:40:04.545Z,96758.88
2022-10-02T19:42:47.394Z,96767.34
2022-10-02T19:45:26.828Z,96756.06
2022-10-02T19:47:59.761Z,96748.09
2022-10-02T19:50:39.861Z,96741.31
2022-10-02T19:53:24.081Z,96749.28
2022-10-02T19:55:56.602Z,96748.56
2022-10-02T19:58:32.662Z,96744.72
2022-10-02T20:01:03.148Z,96732.94
2022-10-02T20:03:33.354Z,96736.06
2022-10-02T20:06:10.646Z,96746.03
2022-10-02T20:08:43.702Z,96743.91
2022-10-02T20:11:18.593Z,96750.25
2022-10-02T20:13:53.857Z,96752.03
2022-10-02T20:16:43.312Z,96755.72
2022-10-02T20:19:17.944Z,96745.09
2022-10-02T20:21:49.555Z,96749.75
2022-10-02T20:24:23.891Z,96758.72
2022-10-02T20:26:56.154Z,96769.06
2022-10-02T20:29:32.061Z,96769.72
2022-10-02T20:32:07.718Z,96780.34
2022-10-02T20:34:46.199Z,96779.53
2022-10-02T20:37:18.671Z,96783.38
2022-10-02T20:39:55.212Z,96787.81
2022-10-02T20:42:30.675Z,96786.53
2022-10-02T20:44:59.089Z,96796.34
2022-10-02T20:48:20.876Z,96795.69
2022-10-02T20:50:59.014Z,96801.81
2022-10-02T20:53:59.853Z,96803.00
2022-10-02T20:56:53.533Z,96815.63
2022-10-02T21:00:00.844Z,96828.78
2022-10-02T21:02:46.120Z,96830.59
2022-10-02T21:05:54.742Z,96828.97
2022-10-02T21:08:41.738Z,96841.91
2022-10-02T21:11:20.046Z,96842.25
2022-10-02T21:14:21.737Z,96828.19
2022-10-02T21:17:30.540Z,96837.00
2022-10-02T21:20:50.854Z,96831.06
2022-10-02T21:24:03.006Z,96827.75
2022-10-02T21:27:16.106Z,96812.47
2022-10-02T21:29:56.597Z,96818.44
2022-10-02T21:32:57.523Z,96827.06
2022-10-02T21:35:39.408Z,96835.03
2022-10-02T21:38:32.201Z,96843.00
2022-10-02T21:41:51.632Z,96835.84
2022-10-02T21:45:03.515Z,96844.31
2022-10-02T21:48:13.760Z,96830.22
2022-10-02T21:51:15.422Z,96839.50
2022-10-02T21:54:38.214Z,96842.31
2022-10-02T21:57:32.068Z,96845.13
2022-10-02T22:00:15.329Z,96839.00
2022-10-02T22:03:21.798Z,96834.00
2022-10-02T22:06:10.577Z,96841.78
2022-10-02T22:08:55.053Z,96838.31
2022-10-02T22:11:33.393Z,96851.25
2022-10-02T22:14:08.575Z,96855.88
2022-10-02T22:16:48.450Z,96852.06
2022-10-02T22:19:37.503Z,96858.19
2022-10-02T22:22:18.450Z,96864.84
2022-10-02T22:25:08.393Z,96869.19
2022-10-02T22:28:00.905Z,96877.50
2022-10-02T22:30:31.178Z,96875.66
2022-10-02T22:33:19.730Z,96878.50
2022-10-02T22:36:18.731Z,96890.25
2022-10-02T22:38:50.687Z,96890.25
2022-10-02T22:41:27.553Z,96878.28
2022-10-02T22:43:59.966Z,96882.94
2022-10-02T22:46:40.985Z,96880.59
2022-10-02T22:49:20.632Z,96894.72
2022-10-02T22:52:00.362Z,96891.91
2022-10-02T22:54:36.777Z,96899.38
2022-10-02T22:57:15.667Z,96906.81
2022-10-02T22:59:50.677Z,96916.91
2022-10-02T23:02:25.572Z,96917.56
2022-10-02T23:05:00.194Z,96918.25
2022-10-02T23:07:37.867Z,96915.47
2022-10-02T23:10:18.215Z,96915.50
2022-10-02T23:12:58.577Z,96915.47
2022-10-02T23:15:36.120Z,96918.81
2022-10-02T23:18:13.300Z,96920.31
2022-10-02T23:20:47.776Z,96920.66
2022-10-02T23:23:23.372Z,96911.72
2022-10-02T23:25:57.422Z,96921.81
2022-10-02T23:28:30.314Z,96917.69
2022-10-02T23:31:08.536Z,96923.81
2022-10-02T23:33:48.169Z,96923.66
2022-10-02T23:36:25.330Z,96929.78
2022-10-02T23:39:04.771Z,96918.84
2022-10-02T23:41:40.742Z,96930.28
2022-10-02T23:44:28.831Z,96929.63
2022-10-02T23:47:14.744Z,96930.63
2022-10-02T23:49:47.611Z,96936.91
2022-10-02T23:52:43.373Z,96929.97
2022-10-02T23:55:39.587Z,96934.75
2022-10-02T23:58:29.348Z,96935.94
